createdAt,value
2023-03-13T00:00:54.000Z,82.6
2023-03-13T00:02:09.000Z,82.7
2023-03-13T00:03:26.000Z,82.9
2023-03-13T00:04:42.000Z,83
2023-03-13T00:05:58.000Z,82.9
2023-03-13T00:07:14.000Z,83
2023-03-13T00:08:31.000Z,82.8
2023-03-13T00:09:47.000Z,83
2023-03-13T00:11:03.000Z,83.1
2023-03-13T00:12:20.000Z,83
2023-03-13T00:13:36.000Z,82.7
2023-03-13T00:14:52.000Z,82.7
2023-03-13T00:16:08.000Z,82.7
2023-03-13T00:17:25.000Z,82.8
2023-03-13T00:18:40.000Z,82.8
2023-03-13T00:19:56.000Z,82.7
2023-03-13T00:21:13.000Z,82.8
2023-03-13T00:22:29.000Z,82.6
2023-03-13T00:23:45.000Z,82.5
2023-03-13T00:25:02.000Z,82.7
2023-03-13T00:26:18.000Z,82.7
2023-03-13T00:27:33.000Z,82.5
2023-03-13T00:28:48.000Z,82.6
2023-03-13T00:30:05.000Z,82.7
2023-03-13T00:31:20.000Z,82.7
2023-03-13T00:32:35.000Z,82.9
2023-03-13T00:33:52.000Z,83
2023-03-13T00:35:08.000Z,83.2
2023-03-13T00:36:24.000Z,83.3
2023-03-13T00:37:40.000Z,83.4
2023-03-13T00:38:57.000Z,83.5
2023-03-13T00:40:13.000Z,83.6
2023-03-13T00:41:29.000Z,83.6
2023-03-13T00:42:46.343Z,83.5
2023-03-13T00:44:02.000Z,83.4
2023-03-13T00:45:18.000Z,83.4
2023-03-13T00:46:34.000Z,83.7
2023-03-13T00:47:51.000Z,84.1
2023-03-13T00:49:06.857Z,84.7
2023-03-13T00:50:22.000Z,85.1
2023-03-13T00:51:39.000Z,85.5
2023-03-13T00:52:55.000Z,85.8
2023-03-13T00:54:11.000Z,86.2
2023-03-13T00:55:27.000Z,86.5
2023-03-13T00:56:44.000Z,86.8
2023-03-13T00:57:59.845Z,87.3
2023-03-13T00:59:15.161Z,87.7
2023-03-13T01:00:31.000Z,88
2023-03-13T01:01:46.000Z,88.2
2023-03-13T01:03:01.000Z,88.6
2023-03-13T01:04:18.000Z,88.8
2023-03-13T01:05:34.000Z,89.1
2023-03-13T01:06:50.000Z,89.2
2023-03-13T01:08:06.000Z,89.5
2023-03-13T01:09:23.000Z,89.9
2023-03-13T01:10:39.000Z,90.2
2023-03-13T01:11:56.074Z,90.4
2023-03-13T01:13:12.359Z,90.5
2023-03-13T01:14:28.621Z,90.7
2023-03-13T01:15:44.000Z,90.9
2023-03-13T01:17:00.000Z,91
2023-03-13T01:18:17.000Z,91.3
2023-03-13T01:19:32.000Z,91.5
2023-03-13T01:20:48.000Z,91.7
2023-03-13T01:22:05.000Z,91.8
2023-03-13T01:23:21.000Z,92
2023-03-13T01:24:37.000Z,92.2
2023-03-13T01:25:53.000Z,92.3
2023-03-13T01:27:10.000Z,92.6
2023-03-13T01:28:26.000Z,92.7
2023-03-13T01:29:42.000Z,92.9
2023-03-13T01:30:59.000Z,93.1
2023-03-13T01:32:15.000Z,93.2
2023-03-13T01:33:31.000Z,93.2
2023-03-13T01:34:48.000Z,93.3
2023-03-13T01:36:03.000Z,93.5
2023-03-13T01:37:19.000Z,93.6
2023-03-13T01:38:35.000Z,93.8
2023-03-13T01:39:52.000Z,94
2023-03-13T01:41:08.000Z,94.1
2023-03-13T01:42:24.000Z,94.4
2023-03-13T01:43:41.000Z,94.5
2023-03-13T01:44:56.000Z,94.6
2023-03-13T01:46:11.000Z,94.7
2023-03-13T01:47:26.000Z,94.9
2023-03-13T01:48:42.000Z,95.1
2023-03-13T01:49:58.812Z,95.2
2023-03-13T01:51:14.000Z,95.4
2023-03-13T01:52:31.000Z,95.6
2023-03-13T01:53:47.000Z,95.8
2023-03-13T01:55:03.000Z,95.8
2023-03-13T01:56:19.000Z,96
2023-03-13T01:57:36.000Z,96.2
2023-03-13T01:58:51.000Z,96.4
2023-03-13T02:00:07.000Z,96.6
2023-03-13T02:01:24.000Z,96.7
2023-03-13T02:02:40.000Z,96.9
2023-03-13T02:03:56.000Z,96.9
2023-03-13T02:05:13.000Z,96.8
2023-03-13T02:06:29.557Z,96.8
2023-03-13T02:07:45.000Z,96.8
2023-03-13T02:09:01.000Z,96.9
2023-03-13T02:10:18.000Z,97.1
2023-03-13T02:11:34.000Z,97.2
2023-03-13T02:12:50.000Z,97.2
2023-03-13T02:14:07.000Z,97.1
2023-03-13T02:15:22.000Z,97.1
2023-03-13T02:16:38.000Z,97.1
2023-03-13T02:17:54.000Z,97.2
2023-03-13T02:19:11.000Z,97.3
2023-03-13T02:20:27.000Z,97.5
2023-03-13T02:21:43.000Z,97.8
2023-03-13T02:23:00.000Z,98.2
2023-03-13T02:24:16.000Z,98.4
2023-03-13T02:25:32.000Z,98.9
2023-03-13T02:26:48.000Z,99.1
2023-03-13T02:28:05.000Z,99.4
2023-03-13T02:29:21.000Z,99.7
2023-03-13T02:30:36.000Z,99.9
2023-03-13T02:31:52.000Z,100
2023-03-13T02:33:07.000Z,100
2023-03-13T02:34:22.000Z,100
2023-03-13T02:35:39.000Z,100
2023-03-13T02:36:55.000Z,100
2023-03-13T02:38:11.000Z,100
2023-03-13T02:39:27.000Z,100
2023-03-13T02:40:44.000Z,100
2023-03-13T02:42:00.690Z,100
2023-03-13T02:43:16.000Z,100
2023-03-13T02:44:33.000Z,100
2023-03-13T02:45:49.000Z,100
2023-03-13T02:47:05.000Z,100
2023-03-13T02:48:21.000Z,100
2023-03-13T02:49:38.000Z,100
2023-03-13T02:50:53.000Z,100
2023-03-13T02:52:09.000Z,100
2023-03-13T02:53:26.000Z,100
2023-03-13T02:54:42.000Z,100
2023-03-13T02:55:58.000Z,100
2023-03-13T02:57:15.188Z,100
2023-03-13T02:58:31.000Z,100
2023-03-13T02:59:47.000Z,100
2023-03-13T03:01:03.000Z,100
2023-03-13T03:02:20.000Z,100
2023-03-13T03:03:36.000Z,100
2023-03-13T03:04:52.000Z,100
2023-03-13T03:06:08.000Z,100
2023-03-13T03:07:24.000Z,100
2023-03-13T03:08:40.000Z,100
2023-03-13T03:09:56.000Z,100
2023-03-13T03:11:13.000Z,100
2023-03-13T03:12:29.000Z,100
2023-03-13T03:13:45.000Z,100
2023-03-13T03:15:01.000Z,100
2023-03-13T03:16:18.000Z,100
2023-03-13T03:17:34.000Z,100
2023-03-13T03:18:51.098Z,100
2023-03-13T03:20:07.361Z,100
2023-03-13T03:21:23.000Z,100
2023-03-13T03:22:39.000Z,100
2023-03-13T03:23:55.000Z,100
2023-03-13T03:25:11.000Z,100
2023-03-13T03:26:26.000Z,100
2023-03-13T03:27:41.000Z,100
2023-03-13T03:28:58.000Z,100
2023-03-13T03:30:14.000Z,100
2023-03-13T03:31:29.000Z,100
2023-03-13T03:32:45.000Z,100
2023-03-13T03:34:01.000Z,100
2023-03-13T03:35:17.000Z,100
2023-03-13T03:36:33.000Z,100
2023-03-13T03:37:50.000Z,100
2023-03-13T03:39:06.000Z,100
2023-03-13T03:40:22.000Z,100
2023-03-13T03:41:39.000Z,100
2023-03-13T03:42:55.000Z,100
2023-03-13T03:44:11.000Z,100
2023-03-13T03:45:27.000Z,100
2023-03-13T03:46:44.000Z,100
2023-03-13T03:48:00.000Z,100
2023-03-13T03:49:15.000Z,100
2023-03-13T03:50:32.373Z,100
2023-03-13T03:51:48.000Z,100
2023-03-13T03:53:04.000Z,100
2023-03-13T03:54:20.000Z,100
2023-03-13T03:55:37.000Z,100
2023-03-13T03:56:53.829Z,100
2023-03-13T03:58:09.000Z,100
2023-03-13T03:59:26.000Z,100
2023-03-13T04:00:42.000Z,100
2023-03-13T04:01:58.000Z,100
2023-03-13T04:03:15.254Z,100
2023-03-13T04:04:31.000Z,100
2023-03-13T04:05:46.842Z,100
2023-03-13T04:07:02.000Z,100
2023-03-13T04:08:19.000Z,100
2023-03-13T04:09:35.724Z,100
2023-03-13T04:10:51.000Z,100
2023-03-13T04:12:08.000Z,100
2023-03-13T04:13:24.000Z,100
2023-03-13T04:14:40.000Z,100
2023-03-13T04:15:56.000Z,100
2023-03-13T04:17:13.000Z,100
2023-03-13T04:18:29.000Z,100
2023-03-13T04:19:45.000Z,100
2023-03-13T04:21:02.331Z,100
2023-03-13T04:22:17.000Z,100
2023-03-13T04:23:33.000Z,100
2023-03-13T04:24:49.000Z,100
2023-03-13T04:26:06.454Z,100
2023-03-13T04:27:22.000Z,100
2023-03-13T04:28:38.000Z,100
2023-03-13T04:29:55.000Z,100
2023-03-13T04:31:11.000Z,100
2023-03-13T04:32:27.000Z,100
2023-03-13T04:33:43.000Z,100
2023-03-13T04:35:00.000Z,100
2023-03-13T04:36:16.000Z,100
2023-03-13T04:37:32.000Z,100
2023-03-13T04:38:48.000Z,100
2023-03-13T04:40:04.000Z,100
2023-03-13T04:41:20.000Z,100
2023-03-13T04:42:36.000Z,100
2023-03-13T04:43:53.000Z,100
2023-03-13T04:45:09.000Z,100
2023-03-13T04:46:25.000Z,100
2023-03-13T04:47:42.374Z,100
2023-03-13T04:48:58.000Z,100
2023-03-13T04:50:14.000Z,100
2023-03-13T04:51:30.000Z,100
2023-03-13T04:52:47.000Z,100
2023-03-13T04:54:03.000Z,100
2023-03-13T04:55:18.000Z,100
2023-03-13T04:56:35.000Z,100
2023-03-13T04:57:51.000Z,100
2023-03-13T04:59:07.000Z,100
2023-03-13T05:00:24.241Z,100
2023-03-13T05:01:40.000Z,100
2023-03-13T05:02:56.000Z,100
2023-03-13T05:04:12.000Z,100
2023-03-13T05:05:29.000Z,100
2023-03-13T05:06:45.000Z,100
2023-03-13T05:08:01.000Z,100
2023-03-13T05:09:18.000Z,100
2023-03-13T05:10:34.000Z,100
2023-03-13T05:11:49.000Z,100
2023-03-13T05:13:05.000Z,100
2023-03-13T05:14:22.000Z,100
2023-03-13T05:15:38.000Z,100
2023-03-13T05:16:55.023Z,100
2023-03-13T05:18:11.000Z,100
2023-03-13T05:19:27.000Z,100
2023-03-13T05:20:43.000Z,100
2023-03-13T05:21:59.000Z,100
2023-03-13T05:23:16.000Z,100
2023-03-13T05:24:32.000Z,100
2023-03-13T05:25:48.000Z,100
2023-03-13T05:27:05.000Z,100
2023-03-13T05:28:20.000Z,100
2023-03-13T05:29:36.000Z,100
2023-03-13T05:30:52.000Z,100
2023-03-13T05:32:09.000Z,100
2023-03-13T05:33:25.000Z,100
2023-03-13T05:34:41.000Z,100
2023-03-13T05:35:57.000Z,100
2023-03-13T05:37:12.580Z,100
2023-03-13T05:38:28.802Z,100
2023-03-13T05:39:44.000Z,100
2023-03-13T05:41:00.289Z,100
2023-03-13T05:42:15.000Z,100
2023-03-13T05:43:31.000Z,100
2023-03-13T05:44:47.000Z,100
2023-03-13T05:46:03.000Z,100
2023-03-13T05:47:20.000Z,100
2023-03-13T05:48:36.000Z,100
2023-03-13T05:49:52.000Z,100
2023-03-13T05:51:09.190Z,100
2023-03-13T05:52:25.000Z,100
2023-03-13T05:53:41.000Z,100
2023-03-13T05:54:57.000Z,100
2023-03-13T05:56:13.000Z,100
2023-03-13T05:57:30.000Z,100
2023-03-13T05:58:45.000Z,100
2023-03-13T06:00:01.000Z,100
2023-03-13T06:01:17.000Z,100
2023-03-13T06:02:34.000Z,100
2023-03-13T06:03:50.000Z,100
2023-03-13T06:05:06.000Z,100
2023-03-13T06:06:22.000Z,100
2023-03-13T06:07:38.000Z,100
2023-03-13T06:08:55.000Z,100
2023-03-13T06:10:11.000Z,100
2023-03-13T06:11:27.000Z,100
2023-03-13T06:12:43.000Z,100
2023-03-13T06:13:59.000Z,100
2023-03-13T06:15:15.000Z,100
2023-03-13T06:16:31.906Z,100
2023-03-13T06:17:48.126Z,100
2023-03-13T06:19:04.000Z,100
2023-03-13T06:20:20.000Z,100
2023-03-13T06:21:36.000Z,100
2023-03-13T06:22:53.038Z,100
2023-03-13T06:24:09.000Z,100
2023-03-13T06:25:25.000Z,100
2023-03-13T06:26:41.000Z,100
2023-03-13T06:27:57.000Z,100
2023-03-13T06:29:14.229Z,100
2023-03-13T06:30:29.000Z,100
2023-03-13T06:31:45.000Z,100
2023-03-13T06:33:01.000Z,100
2023-03-13T06:34:16.000Z,100
2023-03-13T06:35:32.438Z,100
2023-03-13T06:36:47.000Z,100
2023-03-13T06:38:02.000Z,100
2023-03-13T06:39:18.000Z,100
2023-03-13T06:40:35.000Z,100
2023-03-13T06:41:51.000Z,100
2023-03-13T06:43:07.000Z,100
2023-03-13T06:44:24.126Z,100
2023-03-13T06:45:40.000Z,100
2023-03-13T06:46:56.000Z,100
2023-03-13T06:48:12.000Z,100
2023-03-13T06:49:28.000Z,100
2023-03-13T06:50:45.000Z,100
2023-03-13T06:52:01.000Z,100
2023-03-13T06:53:17.000Z,100
2023-03-13T06:54:32.000Z,100
2023-03-13T06:55:48.000Z,100
2023-03-13T06:57:05.000Z,100
2023-03-13T06:58:21.687Z,100
2023-03-13T06:59:37.000Z,100
2023-03-13T07:00:54.153Z,100
2023-03-13T07:02:10.000Z,100
2023-03-13T07:03:26.000Z,100
2023-03-13T07:04:42.000Z,100
2023-03-13T07:05:58.000Z,100
2023-03-13T07:07:15.338Z,100
2023-03-13T07:08:31.000Z,100
2023-03-13T07:09:47.000Z,100
2023-03-13T07:11:03.052Z,100
2023-03-13T07:12:19.000Z,100
2023-03-13T07:13:35.000Z,100
2023-03-13T07:14:51.000Z,100
2023-03-13T07:16:07.000Z,100
2023-03-13T07:17:23.000Z,100
2023-03-13T07:18:40.461Z,100
2023-03-13T07:19:56.000Z,100
2023-03-13T07:21:12.000Z,100
2023-03-13T07:22:28.000Z,100
2023-03-13T07:23:45.000Z,100
2023-03-13T07:25:01.000Z,100
2023-03-13T07:26:17.000Z,100
2023-03-13T07:27:32.000Z,100
2023-03-13T07:28:48.000Z,100
2023-03-13T07:30:04.000Z,100
2023-03-13T07:31:20.842Z,100
2023-03-13T07:32:36.000Z,100
2023-03-13T07:33:53.288Z,99.9
2023-03-13T07:35:09.000Z,99.9
2023-03-13T07:36:25.000Z,99.8
2023-03-13T07:37:40.000Z,99.6
2023-03-13T07:38:56.275Z,99.3
2023-03-13T07:40:12.000Z,98.9
2023-03-13T07:41:28.735Z,98.7
2023-03-13T07:42:44.000Z,98.1
2023-03-13T07:44:01.208Z,97.9
2023-03-13T07:46:33.000Z,97.4
2023-03-13T07:47:49.000Z,97.1
2023-03-13T07:49:05.000Z,97
2023-03-13T07:50:22.000Z,96.9
2023-03-13T07:51:38.609Z,96.8
2023-03-13T07:52:54.000Z,96.7
2023-03-13T07:54:10.000Z,96.6
2023-03-13T07:55:26.000Z,96.7
2023-03-13T07:56:42.000Z,96.5
2023-03-13T07:57:58.800Z,96.3
2023-03-13T07:59:15.021Z,96.1
2023-03-13T08:00:30.000Z,95.9
2023-03-13T08:01:47.478Z,95.7
2023-03-13T08:03:03.000Z,95.6
2023-03-13T08:04:19.000Z,95.7
2023-03-13T08:05:35.000Z,95.7
2023-03-13T08:06:52.429Z,95.8
2023-03-13T08:08:08.000Z,95.2
2023-03-13T08:09:24.000Z,94.9
2023-03-13T08:10:41.144Z,95.1
2023-03-13T08:11:56.000Z,95.1
2023-03-13T08:13:12.586Z,95
2023-03-13T08:14:28.844Z,94.9
2023-03-13T08:15:44.000Z,94.6
2023-03-13T08:17:01.000Z,94.3
2023-03-13T08:18:17.000Z,94.3
2023-03-13T08:19:33.000Z,94.3
2023-03-13T08:20:48.000Z,94.2
2023-03-13T08:22:04.288Z,94
2023-03-13T08:23:20.000Z,94.2
2023-03-13T08:24:36.000Z,94.1
2023-03-13T08:25:52.000Z,94.2
2023-03-13T08:27:08.000Z,94.2
2023-03-13T08:28:25.000Z,94
2023-03-13T08:29:41.675Z,93.8
2023-03-13T08:30:56.000Z,93.8
2023-03-13T08:32:11.000Z,93.8
2023-03-13T08:33:28.000Z,93.5
2023-03-13T08:34:44.000Z,93.5
2023-03-13T08:36:00.000Z,93.7
2023-03-13T08:37:17.113Z,93.3
2023-03-13T08:38:33.369Z,93.3
2023-03-13T08:39:49.000Z,93.2
2023-03-13T08:41:05.000Z,93.3
2023-03-13T08:42:21.000Z,93.5
2023-03-13T08:43:38.000Z,93.5
2023-03-13T08:44:54.000Z,93.5
2023-03-13T08:46:10.000Z,93.5
2023-03-13T08:47:26.000Z,92.9
2023-03-13T08:48:41.000Z,92.8
2023-03-13T08:49:58.000Z,92.4
2023-03-13T08:51:14.000Z,92.4
2023-03-13T08:52:30.936Z,92.5
2023-03-13T08:53:46.000Z,92.4
2023-03-13T08:55:03.393Z,92.3
2023-03-13T08:56:19.000Z,92.3
2023-03-13T08:57:35.000Z,92.4
2023-03-13T08:58:52.092Z,92.4
2023-03-13T09:00:08.327Z,92.3
2023-03-13T09:01:24.549Z,92.4
2023-03-13T09:02:40.000Z,92.5
2023-03-13T09:03:56.000Z,92.3
2023-03-13T09:05:12.000Z,92.4
2023-03-13T09:06:28.000Z,92.5
2023-03-13T09:07:44.000Z,92.8
2023-03-13T09:09:00.000Z,92.8
2023-03-13T09:10:17.204Z,92.9
2023-03-13T09:11:33.000Z,92.8
2023-03-13T09:12:49.692Z,92.6
2023-03-13T09:14:05.000Z,92.5
2023-03-13T09:15:21.000Z,92.4
2023-03-13T09:16:38.000Z,92.2
2023-03-13T09:17:54.605Z,92.1
2023-03-13T09:19:10.000Z,91.7
2023-03-13T09:20:26.000Z,91.6
2023-03-13T09:21:42.000Z,91.5
2023-03-13T09:22:58.000Z,91.2
2023-03-13T09:24:14.000Z,90.9
2023-03-13T09:25:30.000Z,90.2
2023-03-13T09:28:03.000Z,89.1
2023-03-13T09:29:19.000Z,88.8
2023-03-13T09:30:35.000Z,86.9
2023-03-13T09:31:51.000Z,87
2023-03-13T09:33:08.000Z,86.2
2023-03-13T09:34:24.000Z,83.7
2023-03-13T09:35:40.913Z,83.3
2023-03-13T09:36:57.150Z,83.5
2023-03-13T09:38:12.384Z,82.9
2023-03-13T09:39:28.000Z,82.9
2023-03-13T09:40:44.000Z,82.9
2023-03-13T09:42:00.000Z,83.2
2023-03-13T09:43:17.000Z,83.5
2023-03-13T09:44:33.000Z,83.6
2023-03-13T09:45:49.000Z,83.7
2023-03-13T09:48:21.000Z,83.9
2023-03-13T09:49:38.000Z,83.7
2023-03-13T09:50:54.000Z,83.3
2023-03-13T09:52:10.000Z,83.7
2023-03-13T09:53:27.166Z,83.3
2023-03-13T09:54:42.000Z,83.7
2023-03-13T09:55:58.000Z,83.7
2023-03-13T09:57:14.000Z,82.6
2023-03-13T09:58:31.121Z,82.3
2023-03-13T09:59:47.000Z,81.7
2023-03-13T10:01:03.599Z,80.1
2023-03-13T10:02:19.000Z,79.9
2023-03-13T10:03:35.000Z,78.9
2023-03-13T10:04:52.291Z,78.9
2023-03-13T10:06:08.000Z,79.3
2023-03-13T10:07:24.747Z,79.9
2023-03-13T10:08:40.997Z,80.7
2023-03-13T10:09:56.000Z,80.8
2023-03-13T10:11:12.000Z,80.3
2023-03-13T10:12:28.000Z,80.3
2023-03-13T10:13:44.965Z,80.2
2023-03-13T10:15:00.000Z,80.4
2023-03-13T10:16:17.399Z,80.4
2023-03-13T10:18:49.000Z,81.3
2023-03-13T10:20:05.000Z,78.8
2023-03-13T10:21:22.000Z,78
2023-03-13T10:22:38.000Z,77.7
2023-03-13T10:23:54.808Z,77.9
2023-03-13T10:25:10.000Z,76.8
2023-03-13T10:26:27.000Z,75.1
2023-03-13T10:27:42.545Z,72.3
2023-03-13T10:28:57.000Z,71.3
2023-03-13T10:30:14.021Z,71.1
2023-03-13T10:31:30.246Z,72.7
2023-03-13T10:32:46.000Z,72
2023-03-13T10:34:02.000Z,71.7
2023-03-13T10:35:18.000Z,68.9
2023-03-13T10:36:34.000Z,68.7
2023-03-13T10:37:51.000Z,65
2023-03-13T10:39:07.000Z,65.1
2023-03-13T10:40:23.000Z,62.5
2023-03-13T10:41:39.000Z,60.8
2023-03-13T10:42:56.000Z,59.9
2023-03-13T10:44:12.000Z,60.9
2023-03-13T10:45:27.000Z,61.2
2023-03-13T10:46:44.087Z,61.3
2023-03-13T10:48:00.000Z,61.1
2023-03-13T10:49:16.000Z,59
2023-03-13T10:50:32.000Z,62.1
2023-03-13T10:51:48.000Z,63.9
2023-03-13T10:53:05.000Z,66.2
2023-03-13T10:54:21.465Z,67.4
2023-03-13T10:56:53.000Z,66.1
2023-03-13T10:58:09.000Z,64.6
2023-03-13T10:59:26.000Z,66.1
2023-03-13T11:00:42.000Z,66.2
2023-03-13T11:01:57.904Z,63.8
2023-03-13T11:03:13.000Z,64.6
2023-03-13T11:04:30.000Z,65
2023-03-13T11:05:46.000Z,61.2
2023-03-13T11:07:02.000Z,60.9
2023-03-13T11:09:35.300Z,59.9
2023-03-13T11:10:51.000Z,64.2
2023-03-13T11:12:07.000Z,67.8
2023-03-13T11:13:23.000Z,69.8
2023-03-13T11:14:39.000Z,69.8
2023-03-13T11:15:56.000Z,70.5
2023-03-13T11:17:12.000Z,69.6
2023-03-13T11:18:27.000Z,63.1
2023-03-13T11:19:43.000Z,61.5
2023-03-13T11:21:00.000Z,61
2023-03-13T11:22:16.000Z,64.8
2023-03-13T11:23:32.000Z,65.2
2023-03-13T11:24:49.133Z,65
2023-03-13T11:26:05.000Z,65.8
2023-03-13T11:27:21.000Z,65
2023-03-13T11:28:37.000Z,65.3
2023-03-13T11:29:53.000Z,64.9
2023-03-13T11:31:10.000Z,65.4
2023-03-13T11:32:26.523Z,65.2
2023-03-13T11:33:42.000Z,65.3
2023-03-13T11:34:57.000Z,65.2
2023-03-13T11:36:13.000Z,65.9
2023-03-13T11:37:30.000Z,66.6
2023-03-13T11:38:46.000Z,66.2
2023-03-13T11:40:02.936Z,65.8
2023-03-13T11:41:18.000Z,65.5
2023-03-13T11:42:35.000Z,65.7
2023-03-13T11:43:51.000Z,66.1
2023-03-13T11:45:07.000Z,64.8
2023-03-13T11:47:40.341Z,65.5
2023-03-13T11:48:56.000Z,65.4
2023-03-13T11:50:12.000Z,65.7
2023-03-13T11:51:27.000Z,64.8
2023-03-13T11:52:44.290Z,65.5
2023-03-13T11:54:00.000Z,66.3
2023-03-13T11:55:16.736Z,66.4
2023-03-13T11:56:32.000Z,66.8
2023-03-13T11:57:49.229Z,66.9
2023-03-13T11:59:05.000Z,67
2023-03-13T12:00:21.689Z,66.6
2023-03-13T12:01:37.000Z,66.7
2023-03-13T12:02:54.170Z,67.6
2023-03-13T12:04:10.000Z,68.3
2023-03-13T12:05:26.000Z,68.5
2023-03-13T12:06:42.000Z,68.5
2023-03-13T12:07:57.000Z,68.1
2023-03-13T12:09:14.000Z,68.4
2023-03-13T12:10:30.549Z,68.1
2023-03-13T12:11:46.806Z,68.6
2023-03-13T12:13:02.000Z,66.8
2023-03-13T12:14:19.000Z,63.5
2023-03-13T12:15:35.000Z,64.9
2023-03-13T12:16:51.000Z,65.4
2023-03-13T12:18:07.961Z,65.7
2023-03-13T12:19:23.000Z,66.9
2023-03-13T12:20:40.000Z,67.8
2023-03-13T12:21:56.000Z,68.3
2023-03-13T12:23:12.000Z,68.1
2023-03-13T12:24:28.141Z,68.9
2023-03-13T12:25:44.392Z,67.3
2023-03-13T12:27:00.000Z,65.1
2023-03-13T12:28:16.000Z,62.3
2023-03-13T12:29:32.000Z,62.6
2023-03-13T12:30:49.000Z,62.9
2023-03-13T12:32:05.000Z,62.2
2023-03-13T12:33:21.795Z,57.8
2023-03-13T12:34:37.000Z,56.8
2023-03-13T12:35:54.000Z,55.1
2023-03-13T12:37:10.502Z,57.3
2023-03-13T12:38:26.000Z,58.4
2023-03-13T12:39:42.000Z,56.2
2023-03-13T12:40:58.206Z,54.7
2023-03-13T12:42:14.000Z,54.6
2023-03-13T12:43:30.000Z,54.4
2023-03-13T12:44:46.000Z,53.8
2023-03-13T12:46:02.000Z,52.1
2023-03-13T12:47:19.000Z,52.4
2023-03-13T12:48:35.000Z,52.7
2023-03-13T12:49:51.000Z,53.9
2023-03-13T12:51:07.000Z,54.4
2023-03-13T12:52:24.000Z,56
2023-03-13T12:53:40.538Z,56.2
2023-03-13T12:54:56.000Z,57.6
2023-03-13T12:56:13.015Z,58.6
2023-03-13T12:57:28.000Z,58.5
2023-03-13T12:58:44.000Z,56.8
2023-03-13T13:00:00.000Z,53.7
2023-03-13T13:01:16.000Z,52.1
2023-03-13T13:02:32.000Z,51.3
2023-03-13T13:03:49.535Z,52.1
2023-03-13T13:05:05.000Z,50.5
2023-03-13T13:06:21.000Z,49.7
2023-03-13T13:07:37.000Z,50
2023-03-13T13:08:54.000Z,52.4
2023-03-13T13:10:10.000Z,53.4
2023-03-13T13:11:26.808Z,51.2
2023-03-13T13:13:59.000Z,53.9
2023-03-13T13:15:14.529Z,55.8
2023-03-13T13:16:30.000Z,58
2023-03-13T13:17:46.000Z,57.9
2023-03-13T13:19:03.252Z,58.1
2023-03-13T13:20:19.492Z,58.5
2023-03-13T13:21:35.000Z,59.6
2023-03-13T13:22:51.000Z,59.7
2023-03-13T13:24:07.000Z,60.5
2023-03-13T13:25:24.000Z,60.1
2023-03-13T13:26:40.000Z,60.6
2023-03-13T13:27:56.000Z,59.8
2023-03-13T13:29:12.000Z,58.2
2023-03-13T13:30:29.000Z,56.5
2023-03-13T13:31:44.000Z,55.8
2023-03-13T13:33:00.000Z,53.2
2023-03-13T13:34:17.072Z,53.6
2023-03-13T13:35:33.000Z,53.5
2023-03-13T13:36:49.000Z,54.9
2023-03-13T13:38:05.000Z,54.4
2023-03-13T13:39:21.000Z,53.7
2023-03-13T13:40:38.000Z,55.9
2023-03-13T13:41:54.500Z,56.3
2023-03-13T13:43:10.000Z,55.6
2023-03-13T13:44:26.000Z,55.9
2023-03-13T13:45:42.000Z,57.5
2023-03-13T13:46:59.000Z,57.4
2023-03-13T13:48:14.000Z,56.9
2023-03-13T13:49:30.906Z,56.1
2023-03-13T13:50:46.000Z,56.6
2023-03-13T13:52:03.000Z,56.4
2023-03-13T13:53:19.000Z,56.5
2023-03-13T13:54:35.000Z,58
2023-03-13T13:55:51.000Z,57.8
2023-03-13T13:57:08.288Z,58.9
2023-03-13T13:58:24.000Z,58.7
2023-03-13T13:59:40.000Z,58.6
2023-03-13T14:00:56.000Z,58
2023-03-13T14:02:12.000Z,58.4
2023-03-13T14:03:29.000Z,59.1
2023-03-13T14:04:44.719Z,57.8
2023-03-13T14:06:00.940Z,56.7
2023-03-13T14:07:17.183Z,57
2023-03-13T14:08:33.000Z,58.9
2023-03-13T14:09:49.650Z,59.3
2023-03-13T14:11:05.000Z,59.6
2023-03-13T14:12:22.115Z,60.3
2023-03-13T14:13:38.000Z,60.5
2023-03-13T14:14:54.000Z,60.6
2023-03-13T14:16:10.000Z,61
2023-03-13T14:17:26.000Z,61
2023-03-13T14:19:59.532Z,61.6
2023-03-13T14:21:14.000Z,61.6
2023-03-13T14:22:30.000Z,62
2023-03-13T14:23:46.000Z,62.1
2023-03-13T14:25:03.465Z,62.2
2023-03-13T14:26:19.000Z,62
2023-03-13T14:27:35.918Z,62.5
2023-03-13T14:28:51.000Z,62.5
2023-03-13T14:30:08.000Z,62.5
2023-03-13T14:31:24.000Z,62.2
2023-03-13T14:32:40.855Z,61.8
2023-03-13T14:33:56.000Z,61.8
2023-03-13T14:35:13.329Z,61.7
2023-03-13T14:36:29.000Z,61.6
2023-03-13T14:37:44.000Z,61.6
2023-03-13T14:39:00.000Z,61.3
2023-03-13T14:40:17.000Z,61.6
2023-03-13T14:41:33.000Z,60.5
2023-03-13T14:42:49.726Z,60.5
2023-03-13T14:44:04.000Z,60.6
2023-03-13T14:45:20.000Z,60.8
2023-03-13T14:46:37.000Z,60.5
2023-03-13T14:47:53.000Z,60
2023-03-13T14:49:09.000Z,60.3
2023-03-13T14:50:26.165Z,60.2
2023-03-13T14:51:42.000Z,60
2023-03-13T14:52:58.000Z,60.6
2023-03-13T14:54:14.000Z,60.6
2023-03-13T14:55:30.000Z,61.3
2023-03-13T14:58:03.569Z,60.8
2023-03-13T14:59:19.000Z,60.5
2023-03-13T15:00:34.000Z,61.2
2023-03-13T15:01:51.000Z,61.1
2023-03-13T15:03:07.000Z,61.2
2023-03-13T15:04:23.000Z,60.9
2023-03-13T15:05:39.978Z,61.3
2023-03-13T15:06:55.000Z,61.2
2023-03-13T15:08:12.000Z,61.5
2023-03-13T15:09:28.000Z,62.1
2023-03-13T15:10:44.900Z,61.9
2023-03-13T15:12:00.000Z,61.9
2023-03-13T15:13:17.000Z,62
2023-03-13T15:14:33.000Z,62
2023-03-13T15:15:49.000Z,62
2023-03-13T15:17:04.000Z,62.2
2023-03-13T15:18:21.000Z,62.2
2023-03-13T15:19:37.000Z,62.2
2023-03-13T15:20:53.000Z,62.3
2023-03-13T15:22:10.014Z,62
2023-03-13T15:23:26.000Z,62
2023-03-13T15:24:42.000Z,62.3
2023-03-13T15:25:58.000Z,61.3
2023-03-13T15:27:14.000Z,61.8
2023-03-13T15:28:30.000Z,62
2023-03-13T15:29:47.000Z,62
2023-03-13T15:31:03.000Z,62
2023-03-13T15:32:19.000Z,61.8
2023-03-13T15:33:34.000Z,62
2023-03-13T15:34:51.000Z,61.8
2023-03-13T15:36:07.000Z,61.5
2023-03-13T15:37:23.000Z,61.8
2023-03-13T15:38:39.000Z,61.8
2023-03-13T15:39:56.000Z,61.8
2023-03-13T15:41:12.000Z,62
2023-03-13T15:42:28.000Z,62.2
2023-03-13T15:43:44.000Z,62.6
2023-03-13T15:45:00.000Z,62.8
2023-03-13T15:46:17.472Z,63.3
2023-03-13T15:48:49.000Z,63.2
2023-03-13T15:50:04.000Z,63.1
2023-03-13T15:51:21.000Z,62.8
2023-03-13T15:52:37.000Z,63.1
2023-03-13T15:53:53.000Z,63.3
2023-03-13T15:55:09.000Z,63.4
2023-03-13T15:56:26.326Z,63.1
2023-03-13T15:57:42.000Z,63.4
2023-03-13T15:58:58.000Z,63.3
2023-03-13T16:00:15.057Z,63
2023-03-13T16:01:31.000Z,63.2
2023-03-13T16:02:47.000Z,63.5
2023-03-13T16:04:03.000Z,63.4
2023-03-13T16:05:19.000Z,63.7
2023-03-13T16:06:34.000Z,63.6
2023-03-13T16:07:51.000Z,63.9
2023-03-13T16:09:07.000Z,63.7
2023-03-13T16:10:23.000Z,63.7
2023-03-13T16:11:39.000Z,63.9
2023-03-13T16:12:56.375Z,63.8
2023-03-13T16:14:12.000Z,63.8
2023-03-13T16:15:28.000Z,63.9
2023-03-13T16:16:44.000Z,63.5
2023-03-13T16:18:01.000Z,63.5
2023-03-13T16:19:17.000Z,63.1
2023-03-13T16:20:33.000Z,62.8
2023-03-13T16:23:06.000Z,63.1
2023-03-13T16:24:21.000Z,62.9
2023-03-13T16:25:37.000Z,62.8
2023-03-13T16:26:53.968Z,62.9
2023-03-13T16:28:09.000Z,63.1
2023-03-13T16:29:26.000Z,63.3
2023-03-13T16:30:42.000Z,63.6
2023-03-13T16:31:58.000Z,63.9
2023-03-13T16:33:14.000Z,64.3
2023-03-13T16:34:31.000Z,64.4
2023-03-13T16:35:47.607Z,64.5
2023-03-13T16:37:03.000Z,64.6
2023-03-13T16:39:36.000Z,64.9
2023-03-13T16:40:51.000Z,64.8
2023-03-13T16:42:07.000Z,64.8
2023-03-13T16:43:23.000Z,65
2023-03-13T16:44:40.256Z,64.7
2023-03-13T16:45:56.000Z,64.8
2023-03-13T16:47:12.000Z,65
2023-03-13T16:48:28.963Z,64.7
2023-03-13T16:49:44.000Z,64.5
2023-03-13T16:51:01.000Z,64.2
2023-03-13T16:52:17.645Z,64.2
2023-03-13T16:53:33.000Z,64.2
2023-03-13T16:54:49.000Z,64.5
2023-03-13T16:56:06.380Z,64.6
2023-03-13T16:57:21.587Z,64.7
2023-03-13T16:58:37.000Z,65
2023-03-13T16:59:53.000Z,65.1
2023-03-13T17:01:10.000Z,65.1
2023-03-13T17:02:26.000Z,65.5
2023-03-13T17:03:42.775Z,65
2023-03-13T17:04:58.000Z,65
2023-03-13T17:06:14.000Z,65.3
2023-03-13T17:07:31.000Z,65.4
2023-03-13T17:08:47.000Z,65.4
2023-03-13T17:10:03.000Z,65.6
2023-03-13T17:11:19.000Z,65.7
2023-03-13T17:12:36.396Z,65.5
2023-03-13T17:13:51.000Z,65.5
2023-03-13T17:15:07.000Z,65.8
2023-03-13T17:17:40.379Z,65.9
2023-03-13T17:18:56.000Z,65.9
2023-03-13T17:20:12.000Z,65.9
2023-03-13T17:21:28.000Z,66
2023-03-13T17:22:45.000Z,66
2023-03-13T17:24:01.000Z,66.1
2023-03-13T17:25:17.000Z,66.2
2023-03-13T17:26:33.000Z,66.4